createdAt,value
2023-03-05T00:02:02.166Z,100901.94
2023-03-05T00:05:04.485Z,100906.38
2023-03-05T00:08:06.516Z,100913.13
2023-03-05T00:11:10.734Z,100902.97
2023-03-05T00:14:12.757Z,100898.53
2023-03-05T00:17:15.695Z,100902.09
2023-03-05T00:20:17.581Z,100893.63
2023-03-05T00:23:19.338Z,100901.94
2023-03-05T00:26:23.769Z,100890.00
2023-03-05T00:29:25.912Z,100888.31
2023-03-05T00:32:27.971Z,100876.63
2023-03-05T00:35:30.329Z,100874.22
2023-03-05T00:38:32.181Z,100876.56
2023-03-05T00:41:33.835Z,100877.28
2023-03-05T00:44:37.106Z,100877.66
2023-03-05T00:47:40.127Z,100870.06
2023-03-05T00:50:42.097Z,100861.75
2023-03-05T00:53:43.895Z,100861.84
2023-03-05T00:56:47.520Z,100853.31
2023-03-05T00:59:49.393Z,100856.88
2023-03-05T01:02:51.024Z,100844.88
2023-03-05T01:05:53.020Z,100845.72
2023-03-05T01:08:56.444Z,100837.19
2023-03-05T01:12:00.163Z,100832.25
2023-03-05T01:15:02.923Z,100823.81
2023-03-05T01:18:05.135Z,100827.75
2023-03-05T01:21:07.355Z,100817.81
2023-03-05T01:24:09.548Z,100809.03
2023-03-05T01:27:11.361Z,100807.44
2023-03-05T01:30:16.383Z,100806.44
2023-03-05T01:33:18.310Z,100800.78
2023-03-05T01:36:23.532Z,100792.34
2023-03-05T01:39:25.056Z,100800.13
2023-03-05T01:42:26.787Z,100787.44
2023-03-05T01:45:32.559Z,100774.31
2023-03-05T01:48:35.024Z,100777.75
2023-03-05T01:51:47.951Z,100775.19
2023-03-05T01:54:53.750Z,100775.94
2023-03-05T01:58:08.227Z,100767.31
2023-03-05T02:01:09.907Z,100757.03
2023-03-05T02:04:16.358Z,100755.44
2023-03-05T02:07:19.073Z,100761.38
2023-03-05T02:10:27.539Z,100757.09
2023-03-05T02:13:35.648Z,100762.91
2023-03-05T02:16:38.902Z,100758.72
2023-03-05T02:19:52.646Z,100752.41
2023-03-05T02:22:54.660Z,100756.69
2023-03-05T02:25:56.707Z,100752.78
2023-03-05T02:29:01.768Z,100751.63
2023-03-05T02:32:04.233Z,100746.59
2023-03-05T02:35:07.134Z,100741.53
2023-03-05T02:38:10.572Z,100743.78
2023-03-05T02:41:13.922Z,100742.25
2023-03-05T02:44:15.764Z,100736.25
2023-03-05T02:47:18.624Z,100734.59
2023-03-05T02:50:20.654Z,100725.91
2023-03-05T02:53:23.749Z,100733.88
2023-03-05T02:56:26.230Z,100720.16
2023-03-05T02:59:28.937Z,100717.69
2023-03-05T03:02:31.094Z,100714.38
2023-03-05T03:05:32.829Z,100713.81
2023-03-05T03:08:34.814Z,100711.22
2023-03-05T03:11:36.429Z,100709.66
2023-03-05T03:14:41.416Z,100714.13
2023-03-05T03:17:43.432Z,100712.81
2023-03-05T03:20:45.236Z,100702.69
2023-03-05T03:23:47.626Z,100698.84
2023-03-05T03:26:50.111Z,100696.38
2023-03-05T03:29:51.918Z,100697.13
2023-03-05T03:32:54.043Z,100698.63
2023-03-05T03:35:55.711Z,100688.56
2023-03-05T03:38:57.510Z,100689.50
2023-03-05T03:41:59.109Z,100685.38
2023-03-05T03:45:02.543Z,100689.16
2023-03-05T03:48:04.701Z,100682.34
2023-03-05T03:51:07.786Z,100685.59
2023-03-05T03:54:09.426Z,100678.50
2023-03-05T03:57:11.286Z,100663.31
2023-03-05T04:00:13.839Z,100667.84
2023-03-05T04:03:16.850Z,100670.72
2023-03-05T04:06:18.781Z,100670.00
2023-03-05T04:09:20.835Z,100659.63
2023-03-05T04:12:22.842Z,100656.31
2023-03-05T04:15:25.072Z,100656.31
2023-03-05T04:18:27.186Z,100652.97
2023-03-05T04:21:29.670Z,100652.03
2023-03-05T04:24:32.553Z,100643.47
2023-03-05T04:27:34.419Z,100642.66
2023-03-05T04:30:36.248Z,100641.22
2023-03-05T04:33:38.041Z,100638.75
2023-03-05T04:36:39.943Z,100633.53
2023-03-05T04:39:41.888Z,100634.34
2023-03-05T04:42:44.176Z,100644.44
2023-03-05T04:45:46.155Z,100632.13
2023-03-05T04:48:48.074Z,100626.16
2023-03-05T04:51:50.183Z,100620.41
2023-03-05T04:54:52.316Z,100619.47
2023-03-05T04:57:54.161Z,100617.78
2023-03-05T05:01:02.536Z,100617.91
2023-03-05T05:04:04.156Z,100614.59
2023-03-05T05:07:07.536Z,100613.03
2023-03-05T05:10:10.952Z,100612.16
2023-03-05T05:13:12.815Z,100602.16
2023-03-05T05:16:15.873Z,100610.75
2023-03-05T05:19:18.573Z,100611.44
2023-03-05T05:22:20.734Z,100607.28
2023-03-05T05:25:22.718Z,100604.00
2023-03-05T05:28:24.588Z,100599.25
2023-03-05T05:31:26.461Z,100593.19
2023-03-05T05:34:28.643Z,100602.69
2023-03-05T05:37:30.858Z,100607.59
2023-03-05T05:40:32.608Z,100594.53
2023-03-05T05:43:34.411Z,100595.56
2023-03-05T05:46:36.514Z,100597.03
2023-03-05T05:49:38.254Z,100590.09
2023-03-05T05:52:40.222Z,100583.28
2023-03-05T05:55:42.074Z,100589.16
2023-03-05T05:58:47.299Z,100581.78
2023-03-05T06:01:49.075Z,100581.16
2023-03-05T06:04:50.860Z,100586.00
2023-03-05T06:07:52.552Z,100580.72
2023-03-05T06:10:55.976Z,100579.19
2023-03-05T06:13:58.482Z,100580.91
2023-03-05T06:17:00.718Z,100586.28
2023-03-05T06:20:04.452Z,100576.81
2023-03-05T06:23:07.249Z,100581.44
2023-03-05T06:26:11.253Z,100572.81
2023-03-05T06:29:13.024Z,100582.84
2023-03-05T06:32:14.880Z,100569.19
2023-03-05T06:35:17.522Z,100568.88
2023-03-05T06:38:19.571Z,100579.19
2023-03-05T06:41:28.133Z,100576.31
2023-03-05T06:44:30.599Z,100571.16
2023-03-05T06:47:32.548Z,100574.31
2023-03-05T06:50:35.845Z,100575.47
2023-03-05T06:53:39.831Z,100562.31
2023-03-05T06:56:44.395Z,100567.47
2023-03-05T06:59:46.130Z,100571.47
2023-03-05T07:02:47.712Z,100559.97
2023-03-05T07:05:49.630Z,100564.41
2023-03-05T07:08:56.282Z,100558.97
2023-03-05T07:11:58.018Z,100559.78
2023-03-05T07:15:01.002Z,100554.34
2023-03-05T07:18:02.933Z,100554.44
2023-03-05T07:21:07.226Z,100558.78
2023-03-05T07:24:09.439Z,100552.63
2023-03-05T07:27:11.086Z,100549.09
2023-03-05T07:30:13.045Z,100556.03
2023-03-05T07:33:14.850Z,100559.19
2023-03-05T07:36:17.763Z,100553.66
2023-03-05T07:39:20.213Z,100545.28
2023-03-05T07:42:22.098Z,100546.81
2023-03-05T07:45:32.004Z,100551.66
2023-03-05T07:48:34.407Z,100547.41
2023-03-05T07:51:36.311Z,100546.28
2023-03-05T07:54:41.624Z,100537.88
2023-03-05T07:57:43.407Z,100540.16
2023-03-05T08:00:45.150Z,100548.56
2023-03-05T08:03:46.893Z,100540.44
2023-03-05T08:06:49.980Z,100534.78
2023-03-05T08:09:51.708Z,100536.53
2023-03-05T08:12:53.658Z,100538.16
2023-03-05T08:15:55.485Z,100543.78
2023-03-05T08:18:58.360Z,100544.91
2023-03-05T08:22:00.240Z,100529.09
2023-03-05T08:25:04.079Z,100530.19
2023-03-05T08:28:05.887Z,100532.00
2023-03-05T08:31:15.783Z,100521.66
2023-03-05T08:34:17.737Z,100540.44
2023-03-05T08:37:19.516Z,100528.31
2023-03-05T08:40:24.299Z,100527.53
2023-03-05T08:43:26.262Z,100517.53
2023-03-05T08:46:30.642Z,100533.03
2023-03-05T08:49:32.518Z,100521.06
2023-03-05T08:52:34.876Z,100515.53
2023-03-05T08:55:37.704Z,100515.75
2023-03-05T08:58:39.525Z,100508.00
2023-03-05T09:01:41.383Z,100509.66
2023-03-05T09:04:46.387Z,100519.88
2023-03-05T09:07:48.668Z,100516.50
2023-03-05T09:10:50.610Z,100509.75
2023-03-05T09:13:52.346Z,100507.03
2023-03-05T09:16:55.102Z,100509.81
2023-03-05T09:19:56.804Z,100516.44
2023-03-05T09:22:58.628Z,100502.19
2023-03-05T09:26:00.853Z,100504.09
2023-03-05T09:29:02.774Z,100506.88
2023-03-05T09:32:04.918Z,100515.28
2023-03-05T09:35:09.724Z,100502.94
2023-03-05T09:38:11.452Z,100509.19
2023-03-05T09:41:25.352Z,100504.66
2023-03-05T09:44:43.784Z,100499.09
2023-03-05T09:48:23.472Z,100502.63
2023-03-05T09:51:31.597Z,100497.06
2023-03-05T09:54:41.366Z,100486.81
2023-03-05T09:57:49.519Z,100491.03
2023-03-05T10:00:59.536Z,100484.13
2023-03-05T10:04:01.436Z,100488.47
2023-03-05T10:07:17.536Z,100493.31
2023-03-05T10:10:25.424Z,100492.72
2023-03-05T10:13:32.759Z,100492.91
2023-03-05T10:16:52.737Z,100490.75
2023-03-05T10:20:23.516Z,100500.84
2023-03-05T10:23:46.281Z,100476.03
2023-03-05T10:27:08.984Z,100479.63
2023-03-05T10:30:48.722Z,100465.56
2023-03-05T10:34:12.250Z,100467.91
2023-03-05T10:37:51.706Z,100453.84
2023-03-05T10:40:55.927Z,100457.97
2023-03-05T10:44:16.531Z,100459.91
2023-03-05T10:47:24.410Z,100440.41
2023-03-05T10:50:48.373Z,100445.38
2023-03-05T10:53:58.457Z,100445.69
2023-03-05T10:57:25.279Z,100447.34
2023-03-05T11:00:28.334Z,100434.53
2023-03-05T11:03:52.266Z,100439.97
2023-03-05T11:06:54.272Z,100427.81
2023-03-05T11:10:21.524Z,100421.72
2023-03-05T11:13:34.047Z,100436.44
2023-03-05T11:16:47.887Z,100414.53
2023-03-05T11:19:49.714Z,100422.31
2023-03-05T11:23:24.354Z,100411.09
2023-03-05T11:26:26.171Z,100412.56
2023-03-05T11:29:31.319Z,100410.34
2023-03-05T11:32:33.658Z,100402.00
2023-03-05T11:35:38.117Z,100392.41
2023-03-05T11:38:52.248Z,100389.63
2023-03-05T11:42:06.259Z,100393.25
2023-03-05T11:45:16.412Z,100375.34
2023-03-05T11:48:27.118Z,100385.75
2023-03-05T11:51:33.686Z,100374.28
2023-03-05T11:55:00.267Z,100361.91
2023-03-05T11:58:20.463Z,100365.38
2023-03-05T12:01:25.431Z,100360.97
2023-03-05T12:04:27.787Z,100348.84
2023-03-05T12:07:43.254Z,100354.47
2023-03-05T12:10:45.366Z,100350.25
2023-03-05T12:13:52.453Z,100330.91
2023-03-05T12:17:14.679Z,100338.19
2023-03-05T12:20:34.733Z,100336.44
2023-03-05T12:23:58.993Z,100333.50
2023-03-05T12:27:05.621Z,100321.66
2023-03-05T12:30:45.968Z,100315.63
2023-03-05T12:33:49.978Z,100310.38
2023-03-05T12:36:51.611Z,100309.53
2023-03-05T12:40:19.456Z,100303.72
2023-03-05T12:43:34.802Z,100304.47
2023-03-05T12:46:44.151Z,100299.84
2023-03-05T12:49:47.152Z,100289.28
2023-03-05T12:52:48.950Z,100277.84
2023-03-05T12:56:16.471Z,100275.78
2023-03-05T12:59:23.170Z,100274.66
2023-03-05T13:02:40.948Z,100264.09
2023-03-05T13:05:50.609Z,100277.91
2023-03-05T13:08:58.218Z,100290.44
2023-03-05T13:12:01.669Z,100259.50
2023-03-05T13:15:06.521Z,100258.63
2023-03-05T13:18:28.032Z,100264.94
2023-03-05T13:21:34.280Z,100263.38
2023-03-05T13:24:36.000Z,100246.31
2023-03-05T13:27:38.223Z,100241.31
2023-03-05T13:30:45.604Z,100244.38
2023-03-05T13:34:05.794Z,100240.19
2023-03-05T13:37:17.761Z,100226.94
2023-03-05T13:40:24.681Z,100230.44
2023-03-05T13:43:26.539Z,100227.59
2023-03-05T13:46:34.810Z,100220.13
2023-03-05T13:49:36.925Z,100214.38
2023-03-05T13:52:38.878Z,100207.03
2023-03-05T13:55:43.399Z,100204.03
2023-03-05T13:58:56.070Z,100206.88
2023-03-05T14:02:00.385Z,100197.72
2023-03-05T14:05:05.816Z,100193.56
2023-03-05T14:08:23.792Z,100194.72
2023-03-05T14:11:26.507Z,100190.66
2023-03-05T14:14:29.820Z,100179.31
2023-03-05T14:17:43.221Z,100180.78
2023-03-05T14:21:11.328Z,100180.97
2023-03-05T14:24:23.690Z,100182.53
2023-03-05T14:27:26.360Z,100173.16
2023-03-05T14:30:30.930Z,100167.59
2023-03-05T14:33:34.496Z,100169.56
2023-03-05T14:36:36.806Z,100163.69
2023-03-05T14:39:54.592Z,100156.81
2023-03-05T14:42:57.728Z,100157.03
2023-03-05T14:46:00.336Z,100157.97
2023-03-05T14:49:02.995Z,100145.63
2023-03-05T14:52:16.925Z,100139.63
2023-03-05T14:55:21.699Z,100132.94
2023-03-05T14:58:28.078Z,100130.50
2023-03-05T15:01:29.969Z,100122.59
2023-03-05T15:04:32.404Z,100116.63
2023-03-05T15:07:34.209Z,100117.88
2023-03-05T15:10:37.207Z,100106.44
2023-03-05T15:13:39.007Z,100097.97
2023-03-05T15:16:43.713Z,100095.59
2023-03-05T15:19:47.389Z,100095.69
2023-03-05T15:22:49.276Z,100087.16
2023-03-05T15:25:51.128Z,100083.31
2023-03-05T15:28:53.034Z,100082.78
2023-03-05T15:31:57.017Z,100077.69
2023-03-05T15:34:58.644Z,100083.34
2023-03-05T15:38:00.461Z,100082.28
2023-03-05T15:41:02.305Z,100080.41
2023-03-05T15:44:04.178Z,100072.28
2023-03-05T15:47:06.785Z,100071.44
2023-03-05T15:50:10.296Z,100073.53
2023-03-05T15:53:15.613Z,100064.75
2023-03-05T15:56:20.352Z,100066.78
2023-03-05T15:59:22.377Z,100049.13
2023-03-05T16:02:25.053Z,100054.09
2023-03-05T16:05:27.906Z,100053.72
2023-03-05T16:08:29.625Z,100049.81
2023-03-05T16:11:37.385Z,100060.03
2023-03-05T16:14:43.275Z,100046.03
2023-03-05T16:17:48.760Z,100068.56
2023-03-05T16:20:51.791Z,100060.66
2023-03-05T16:23:53.480Z,100053.22
2023-03-05T16:26:57.355Z,100047.94
2023-03-05T16:29:58.939Z,100048.19
2023-03-05T16:33:00.845Z,100044.22
2023-03-05T16:36:20.886Z,100040.78
2023-03-05T16:39:24.308Z,100032.41
2023-03-05T16:42:26.470Z,100031.75
2023-03-05T16:45:28.195Z,100035.88
2023-03-05T16:48:31.248Z,100026.00
2023-03-05T16:51:33.047Z,100030.59
2023-03-05T16:54:37.076Z,100027.81
2023-03-05T16:57:41.547Z,100028.03
2023-03-05T17:00:43.544Z,100028.66
2023-03-05T17:03:49.340Z,100025.53
2023-03-05T17:06:51.909Z,100031.22
2023-03-05T17:09:54.210Z,100033.69
2023-03-05T17:12:56.918Z,100031.47
2023-03-05T17:15:58.903Z,100027.94
2023-03-05T17:19:06.669Z,100034.84
2023-03-05T17:22:15.336Z,100023.53
2023-03-05T17:25:16.979Z,100016.66
2023-03-05T17:28:18.885Z,100022.97
2023-03-05T17:31:23.477Z,100023.63
2023-03-05T17:34:35.679Z,100022.59
2023-03-05T17:37:38.007Z,100026.00
2023-03-05T17:40:39.937Z,100020.50
2023-03-05T17:43:44.143Z,100017.13
2023-03-05T17:46:45.772Z,100015.66
2023-03-05T17:49:47.545Z,100009.72
2023-03-05T17:52:49.822Z,100013.00
2023-03-05T17:55:51.926Z,100015.56
2023-03-05T17:58:53.715Z,100013.75
2023-03-05T18:01:57.657Z,100023.88
2023-03-05T18:04:59.817Z,100019.88
2023-03-05T18:08:03.424Z,100018.94
2023-03-05T18:11:05.355Z,100017.91
2023-03-05T18:14:10.478Z,100010.34
2023-03-05T18:17:12.385Z,100011.75
2023-03-05T18:20:28.553Z,100005.34
2023-03-05T18:23:30.422Z,100001.03
2023-03-05T18:26:33.213Z,99995.44
2023-03-05T18:29:35.093Z,99996.53
2023-03-05T18:32:37.034Z,99989.69
2023-03-05T18:35:39.676Z,99978.22
2023-03-05T18:38:41.510Z,99978.81
2023-03-05T18:41:43.228Z,99976.78
2023-03-05T18:44:44.847Z,99973.78
2023-03-05T18:47:48.069Z,99974.44
2023-03-05T18:50:55.956Z,99970.38
2023-03-05T18:53:57.863Z,99966.44
2023-03-05T18:57:00.347Z,99960.22
2023-03-05T19:00:02.154Z,99957.22
2023-03-05T19:03:05.780Z,99955.66
2023-03-05T19:06:07.986Z,99949.28
2023-03-05T19:09:19.470Z,99959.19
2023-03-05T19:12:24.225Z,99955.63
2023-03-05T19:15:25.830Z,99950.53
2023-03-05T19:18:28.761Z,99957.28
2023-03-05T19:21:31.792Z,99955.00
2023-03-05T19:24:34.516Z,99950.72
2023-03-05T19:27:37.127Z,99956.66
2023-03-05T19:30:39.601Z,99945.22
2023-03-05T19:33:42.532Z,99941.47
2023-03-05T19:36:44.549Z,99935.78
2023-03-05T19:39:46.529Z,99934.88
2023-03-05T19:42:48.155Z,99932.50
2023-03-05T19:45:50.516Z,99929.22
2023-03-05T19:48:52.399Z,99924.91
2023-03-05T19:51:55.081Z,99926.22
2023-03-05T19:54:56.895Z,99922.47
2023-03-05T19:57:58.495Z,99920.34
2023-03-05T20:01:25.859Z,99926.03
2023-03-05T20:04:28.264Z,99919.72
2023-03-05T20:07:30.000Z,99909.13
2023-03-05T20:10:31.773Z,99913.50
2023-03-05T20:13:33.761Z,99918.53
2023-03-05T20:16:36.549Z,99913.88
2023-03-05T20:19:38.374Z,99912.88
2023-03-05T20:22:45.638Z,99908.19
2023-03-05T20:25:48.824Z,99908.56
2023-03-05T20:28:50.542Z,99903.81
2023-03-05T20:31:54.137Z,99894.88
2023-03-05T20:34:56.263Z,99897.56
2023-03-05T20:38:21.255Z,99896.50
2023-03-05T20:41:22.898Z,99899.41
2023-03-05T20:44:24.503Z,99890.81
2023-03-05T20:47:38.142Z,99894.94
2023-03-05T20:50:41.071Z,99886.44
2023-03-05T20:53:43.495Z,99881.16
2023-03-05T20:56:45.147Z,99885.63
2023-03-05T20:59:46.813Z,99878.97
2023-03-05T21:02:51.561Z,99870.97
2023-03-05T21:05:56.463Z,99868.84
2023-03-05T21:08:58.759Z,99861.25
2023-03-05T21:12:00.928Z,99863.00
2023-03-05T21:15:02.741Z,99865.09
2023-03-05T21:18:04.657Z,99855.72
2023-03-05T21:21:06.761Z,99857.81
2023-03-05T21:24:08.474Z,99840.81
2023-03-05T21:27:10.644Z,99841.56
2023-03-05T21:30:12.709Z,99847.94
2023-03-05T21:33:25.803Z,99834.06
2023-03-05T21:36:28.574Z,99826.47
2023-03-05T21:39:30.085Z,99831.22
2023-03-05T21:42:32.463Z,99828.94
2023-03-05T21:45:34.112Z,99825.63
2023-03-05T21:48:36.852Z,99818.22
2023-03-05T21:51:49.535Z,99818.50
2023-03-05T21:54:54.050Z,99811.81
2023-03-05T21:57:55.688Z,99803.03
2023-03-05T22:00:58.424Z,99807.22
2023-03-05T22:04:00.293Z,99799.63
2023-03-05T22:07:02.064Z,99789.69
2023-03-05T22:10:03.959Z,99791.09
2023-03-05T22:13:12.451Z,99787.13
2023-03-05T22:16:27.698Z,99779.94
2023-03-05T22:19:29.951Z,99774.84
2023-03-05T22:22:31.548Z,99766.53
2023-03-05T22:25:33.367Z,99763.31
2023-03-05T22:28:38.830Z,99753.03
2023-03-05T22:31:40.700Z,99752.22
2023-03-05T22:34:42.311Z,99753.13
2023-03-05T22:37:44.363Z,99746.56
2023-03-05T22:40:48.081Z,99753.38
2023-03-05T22:43:50.453Z,99752.56
2023-03-05T22:46:52.290Z,99738.16
2023-03-05T22:49:57.574Z,99735.09
2023-03-05T22:52:59.537Z,99730.25
2023-03-05T22:56:07.143Z,99733.91
2023-03-05T22:59:08.661Z,99736.34
2023-03-05T23:02:10.520Z,99728.06
2023-03-05T23:05:12.250Z,99727.31
2023-03-05T23:08:13.843Z,99722.94
2023-03-05T23:11:15.464Z,99721.03
2023-03-05T23:14:17.039Z,99714.00
2023-03-05T23:17:18.727Z,99714.09
2023-03-05T23:20:22.845Z,99707.44
2023-03-05T23:23:25.647Z,99708.16
2023-03-05T23:26:27.288Z,99712.53
2023-03-05T23:29:30.266Z,99706.88
2023-03-05T23:32:32.079Z,99714.66
2023-03-05T23:35:37.506Z,99709.91
2023-03-05T23:38:39.303Z,99708.91
2023-03-05T23:41:41.021Z,99707.63
2023-03-05T23:44:42.532Z,99697.41
2023-03-05T23:47:44.908Z,99697.50
2023-03-05T23:50:47.905Z,99696.22
2023-03-05T23:53:49.640Z,99688.22
2023-03-05T23:56:51.366Z,99682.91
2023-03-05T23:59:53.120Z,99679.16
